Lackland Air Force Base (Kelly Field Annex) Airport
KSKF : now visible

Airfield :











YOU CAN JOIN US ON...

 
LOGIN :

Register | Disclaimer

   EN    FR    IT 

 









Legend :    VFR   Marginal VFR   IFR   Intensive IFR   Very Intensive IFR
Visi :
Ceiling :
>= 8 km
>= 3000ft
5 to 8 km
1000 to 3000 ft
1500m to 5 km
500 to 1000 ft
800 to 1500m
200 to 500 ft
< 800m
< 200 ft
Symbols :   Thunderstorms  Fog  Heavy snow  Heavy precipitations  Wind > 20 kt






- Airport Elevation : 691 ft


KSKF - Lackland Air Force Base (Kelly Field Annex)

CURRENT METAR :
  • 211055Z AUTO 16005KT 10SM OVC009 26/24 A2997 RMK AO2 SLP140 T02580240 $

EXPIRED METARs :
  • 211025Z AUTO 14006KT 10SM OVC008 26/24 A2997 RMK AO2 CIG 008V010 SLP140 $
  • 210955Z AUTO 15005KT 10SM OVC010 26/24 A2997 RMK AO2 SLP140 T02590239 $
  • 210855Z AUTO 14006KT 10SM OVC011 26/24 A2998 RMK AO2 CIG 010 RWY34 SLP143 T02640238 58002 $
  • 210816Z AUTO 00000KT 10SM BKN011 26/24 A2998 RMK AO2 BKN V SCT SLP143 $
  • 210756Z AUTO 14004KT 10SM FEW012 26/23 A2998 RMK AO2 SLP143 $
  • 210755Z AUTO 14004KT 10SM CLR 26/23 A2998 RMK AO2 SLP143 T02600234 $
  • 210718Z AUTO 15006KT 10SM FEW012 26/23 A2999 RMK AO2 SLP147 $
  • 210655Z AUTO 15007KT 10SM CLR 26/23 A2999 RMK AO2 SLP147 T02600227 $

TAF TAF KSKF
Valid from the 21 at 10:00 until the 22 at 16:00 UTC


211000Z 2110/2216 16004KT 9999 BKN010 QNH2997INS
TEMPO 2111/2114 BKN008
BECMG 2114/2115 15006KT 9999 SCT035 SCT250 QNH2987INS
BECMG 2121/2122 11009KT 9999 VCTS SCT055CB SCT250 QNH2985INS
TEMPO 2123/2202 01020G35KT 2400 +TSRA BKN025CB BKN060
BECMG 2203/2204 13006KT 9999 NSW SCT060 BKN250 QNH2991INS
BECMG 2208/2209 13004KT 9999 BKN010 QNH2994INS
BECMG 2214/2215 17006KT 9999 VCSH SCT030 SCT100 BKN250 QNH2996INS TX37/2121Z TN25/2112Z
KZHU FIR / North America



MET'MAP, your aeronautical weather chart ! - Copyright ORBIFLY December 2007 - Disclaimer

ORBIFLY MET'MAP TEAM :

Programming & Development : Alexandra Zaïnal
Original concept : Baudouin d'Aumeries
Technical & hardware support : Manuel Goepfert
Assistance : Marc-Olivier Méhu




SOURCES & CREDITS :

   NOAA       Earth
Advisory